createdAt,value
2022-12-18T00:02:00.046Z,80.81
2022-12-18T00:04:28.041Z,81.08
2022-12-18T00:06:55.092Z,81.14
2022-12-18T00:09:21.964Z,80.84
2022-12-18T00:11:51.308Z,80.97
2022-12-18T00:14:17.766Z,81.10
2022-12-18T00:16:47.555Z,81.25
2022-12-18T00:19:15.464Z,81.16
2022-12-18T00:21:42.966Z,81.20
2022-12-18T00:24:10.728Z,81.28
2022-12-18T00:26:38.413Z,81.08
2022-12-18T00:29:14.681Z,81.01
2022-12-18T00:31:42.757Z,81.36
2022-12-18T00:34:14.040Z,81.28
2022-12-18T00:36:41.975Z,81.78
2022-12-18T00:39:09.066Z,81.84
2022-12-18T00:41:54.099Z,81.68
2022-12-18T00:44:21.046Z,81.61
2022-12-18T00:46:49.058Z,81.51
2022-12-18T00:49:18.812Z,81.35
2022-12-18T00:51:46.597Z,81.53
2022-12-18T00:54:13.149Z,81.40
2022-12-18T00:56:48.170Z,81.34
2022-12-18T00:59:15.567Z,81.40
2022-12-18T01:01:42.177Z,81.89
2022-12-18T01:04:08.787Z,81.82
2022-12-18T01:06:35.476Z,81.26
2022-12-18T01:09:02.569Z,81.53
2022-12-18T01:11:31.417Z,81.69
2022-12-18T01:14:00.943Z,81.77
2022-12-18T01:16:27.693Z,81.71
2022-12-18T01:18:55.483Z,81.87
2022-12-18T01:21:23.529Z,82.61
2022-12-18T01:23:55.342Z,82.75
2022-12-18T01:26:22.613Z,83.04
2022-12-18T01:28:49.345Z,83.25
2022-12-18T01:31:22.732Z,83.05
2022-12-18T01:33:49.786Z,82.80
2022-12-18T01:36:23.261Z,82.84
2022-12-18T01:38:50.831Z,83.15
2022-12-18T01:41:20.299Z,83.30
2022-12-18T01:43:58.318Z,83.45
2022-12-18T01:46:26.342Z,83.63
2022-12-18T01:49:02.087Z,83.69
2022-12-18T01:51:31.266Z,83.52
2022-12-18T01:53:59.492Z,83.41
2022-12-18T01:56:26.252Z,83.47
2022-12-18T01:59:10.094Z,83.19
2022-12-18T02:01:38.918Z,83.37
2022-12-18T02:04:27.679Z,83.16
2022-12-18T02:07:00.163Z,83.48
2022-12-18T02:09:38.514Z,83.02
2022-12-18T02:12:30.356Z,82.95
2022-12-18T02:15:17.864Z,82.75
2022-12-18T02:17:52.060Z,82.76
2022-12-18T02:20:43.237Z,83.02
2022-12-18T02:23:39.793Z,83.17
2022-12-18T02:26:20.186Z,83.10
2022-12-18T02:28:57.816Z,83.27
2022-12-18T02:31:28.201Z,83.49
2022-12-18T02:34:03.679Z,82.96
2022-12-18T02:36:33.399Z,82.94
2022-12-18T02:39:02.052Z,82.53
2022-12-18T02:41:30.486Z,82.46
2022-12-18T02:43:59.553Z,82.76
2022-12-18T02:46:28.423Z,82.95
2022-12-18T02:49:03.955Z,83.28
2022-12-18T02:51:39.448Z,83.21
2022-12-18T02:54:38.104Z,83.09
2022-12-18T02:57:16.010Z,82.94
2022-12-18T02:59:55.189Z,83.21
2022-12-18T03:02:45.599Z,83.60
2022-12-18T03:05:23.540Z,83.80
2022-12-18T03:08:02.670Z,84.04
2022-12-18T03:10:33.563Z,84.10
2022-12-18T03:13:05.788Z,84.13
2022-12-18T03:15:37.987Z,84.48
2022-12-18T03:18:11.496Z,84.00
2022-12-18T03:20:40.698Z,84.02
2022-12-18T03:23:15.216Z,84.24
2022-12-18T03:25:44.726Z,84.26
2022-12-18T03:28:15.870Z,84.07
2022-12-18T03:30:45.597Z,84.44
2022-12-18T03:33:20.586Z,84.40
2022-12-18T03:35:47.560Z,84.51
2022-12-18T03:38:14.650Z,84.48
2022-12-18T03:40:44.007Z,84.78
2022-12-18T03:43:36.000Z,84.88
2022-12-18T03:46:12.728Z,84.32
2022-12-18T03:48:45.306Z,84.62
2022-12-18T03:51:35.099Z,84.17
2022-12-18T03:54:04.964Z,83.99
2022-12-18T03:56:36.680Z,84.03
2022-12-18T03:59:06.096Z,83.81
2022-12-18T04:01:39.429Z,84.29
2022-12-18T04:04:08.163Z,83.77
2022-12-18T04:06:37.002Z,84.25
2022-12-18T04:09:04.940Z,84.31
2022-12-18T04:11:31.490Z,84.33
2022-12-18T04:13:59.158Z,84.41
2022-12-18T04:16:26.966Z,84.21
2022-12-18T04:18:54.778Z,84.02
2022-12-18T04:21:21.680Z,83.89
2022-12-18T04:23:48.089Z,83.65
2022-12-18T04:26:14.455Z,84.03
2022-12-18T04:28:40.845Z,83.59
2022-12-18T04:31:07.406Z,83.45
2022-12-18T04:33:33.862Z,83.76
2022-12-18T04:36:00.439Z,83.65
2022-12-18T04:38:26.848Z,83.50
2022-12-18T04:40:53.278Z,83.40
2022-12-18T04:43:19.894Z,83.36
2022-12-18T04:45:46.593Z,83.31
2022-12-18T04:48:13.040Z,83.52
2022-12-18T04:50:39.694Z,83.25
2022-12-18T04:53:07.444Z,83.43
2022-12-18T04:55:33.950Z,83.42
2022-12-18T04:58:00.349Z,83.53
2022-12-18T05:00:27.023Z,83.60
2022-12-18T05:02:54.149Z,83.66
2022-12-18T05:05:20.645Z,83.54
2022-12-18T05:07:47.032Z,83.68
2022-12-18T05:10:13.509Z,83.75
2022-12-18T05:12:58.894Z,83.61
2022-12-18T05:15:31.569Z,83.38
2022-12-18T05:17:58.800Z,83.35
2022-12-18T05:20:26.125Z,83.34
2022-12-18T05:22:53.140Z,83.63
2022-12-18T05:25:20.609Z,83.69
2022-12-18T05:27:47.884Z,84.05
2022-12-18T05:30:15.547Z,83.90
2022-12-18T05:32:42.471Z,83.92
2022-12-18T05:35:11.058Z,83.89
2022-12-18T05:37:42.717Z,84.02
2022-12-18T05:40:10.212Z,83.77
2022-12-18T05:42:36.599Z,83.62
2022-12-18T05:45:03.410Z,83.34
2022-12-18T05:47:30.002Z,83.14
2022-12-18T05:49:56.454Z,83.05
2022-12-18T05:52:22.933Z,83.00
2022-12-18T05:54:49.329Z,83.01
2022-12-18T05:57:15.710Z,83.05
2022-12-18T05:59:42.274Z,82.88
2022-12-18T06:02:08.788Z,82.99
2022-12-18T06:04:35.449Z,82.82
2022-12-18T06:07:04.713Z,82.71
2022-12-18T06:09:31.226Z,82.78
2022-12-18T06:11:57.705Z,82.93
2022-12-18T06:14:24.102Z,82.68
2022-12-18T06:16:52.278Z,82.26
2022-12-18T06:19:18.699Z,82.53
2022-12-18T06:21:45.089Z,82.69
2022-12-18T06:24:11.540Z,82.80
2022-12-18T06:26:39.871Z,82.53
2022-12-18T06:29:06.779Z,82.49
2022-12-18T06:31:33.435Z,82.52
2022-12-18T06:34:03.191Z,82.57
2022-12-18T06:36:30.401Z,82.59
2022-12-18T06:38:57.387Z,82.28
2022-12-18T06:41:23.865Z,82.72
2022-12-18T06:43:50.237Z,82.43
2022-12-18T06:46:16.832Z,82.67
2022-12-18T06:48:43.277Z,82.69
2022-12-18T06:51:09.611Z,82.62
2022-12-18T06:53:36.055Z,82.47
2022-12-18T06:56:09.164Z,82.75
2022-12-18T06:58:36.594Z,82.68
2022-12-18T07:01:05.522Z,82.91
2022-12-18T07:03:32.181Z,83.24
2022-12-18T07:05:58.586Z,83.31
2022-12-18T07:08:25.683Z,83.61
2022-12-18T07:10:56.049Z,83.47
2022-12-18T07:13:23.358Z,83.48
2022-12-18T07:15:49.849Z,83.67
2022-12-18T07:18:16.482Z,83.61
2022-12-18T07:20:42.899Z,83.79
2022-12-18T07:23:09.267Z,83.70
2022-12-18T07:25:36.454Z,83.45
2022-12-18T07:28:03.081Z,83.95
2022-12-18T07:30:29.849Z,83.52
2022-12-18T07:32:56.335Z,83.67
2022-12-18T07:35:25.217Z,83.48
2022-12-18T07:37:52.280Z,83.43
2022-12-18T07:40:18.716Z,83.56
2022-12-18T07:42:45.104Z,83.74
2022-12-18T07:45:11.841Z,83.80
2022-12-18T07:47:38.418Z,83.95
2022-12-18T07:50:06.276Z,83.87
2022-12-18T07:52:32.695Z,83.86
2022-12-18T07:54:59.824Z,83.78
2022-12-18T08:00:13.581Z,83.62
2022-12-18T08:02:40.184Z,83.43
2022-12-18T08:05:07.110Z,83.40
2022-12-18T08:07:33.583Z,83.27
2022-12-18T08:10:00.089Z,83.06
2022-12-18T08:12:26.486Z,82.97
2022-12-18T08:14:52.864Z,82.75
2022-12-18T08:17:21.038Z,83.32
2022-12-18T08:19:47.439Z,83.34
2022-12-18T08:22:13.876Z,83.08
2022-12-18T08:24:40.364Z,82.76
2022-12-18T08:27:28.394Z,83.02
2022-12-18T08:29:53.252Z,83.07
2022-12-18T08:32:19.759Z,82.78
2022-12-18T08:34:46.213Z,82.76
2022-12-18T08:37:12.777Z,82.73
2022-12-18T08:39:39.203Z,82.60
2022-12-18T08:42:24.406Z,82.51
2022-12-18T08:44:50.810Z,82.65
2022-12-18T08:47:17.235Z,82.34
2022-12-18T08:49:43.642Z,82.02
2022-12-18T08:52:10.427Z,82.25
2022-12-18T08:54:36.833Z,82.22
2022-12-18T08:57:03.311Z,82.33
2022-12-18T08:59:29.730Z,82.39
2022-12-18T09:01:56.614Z,82.47
2022-12-18T09:04:23.537Z,82.64
2022-12-18T09:06:51.192Z,82.29
2022-12-18T09:09:17.922Z,82.41
2022-12-18T09:11:44.309Z,82.46
2022-12-18T09:14:11.293Z,82.32
2022-12-18T09:16:37.867Z,82.44
2022-12-18T09:19:06.401Z,82.39
2022-12-18T09:21:37.228Z,82.32
2022-12-18T09:24:05.154Z,82.18
2022-12-18T09:26:35.119Z,82.25
2022-12-18T09:29:01.544Z,82.13
2022-12-18T09:31:27.929Z,82.10
2022-12-18T09:33:56.568Z,82.03
2022-12-18T09:36:22.996Z,81.96
2022-12-18T09:38:49.423Z,82.08
2022-12-18T09:41:20.883Z,81.95
2022-12-18T09:43:52.546Z,81.74
2022-12-18T09:46:33.852Z,81.49
2022-12-18T09:49:04.383Z,81.68
2022-12-18T09:51:40.934Z,81.50
2022-12-18T09:54:25.392Z,81.49
2022-12-18T09:56:52.889Z,81.15
2022-12-18T09:59:27.504Z,80.33
2022-12-18T10:01:55.040Z,79.08
2022-12-18T10:04:21.597Z,77.82
2022-12-18T10:07:22.608Z,77.46
2022-12-18T10:10:21.060Z,77.45
2022-12-18T10:13:08.350Z,77.60
2022-12-18T10:15:49.095Z,77.58
2022-12-18T10:18:23.121Z,78.03
2022-12-18T10:21:03.207Z,77.88
2022-12-18T10:23:48.189Z,77.59
2022-12-18T10:26:15.313Z,77.32
2022-12-18T10:28:43.506Z,76.93
2022-12-18T10:31:18.172Z,75.92
2022-12-18T10:33:44.929Z,75.81
2022-12-18T10:36:11.820Z,75.73
2022-12-18T10:38:38.821Z,75.33
2022-12-18T10:41:15.161Z,75.07
2022-12-18T10:43:41.954Z,74.56
2022-12-18T10:46:08.389Z,74.15
2022-12-18T10:48:48.589Z,73.84
2022-12-18T10:51:38.331Z,73.89
2022-12-18T10:54:13.765Z,73.82
2022-12-18T10:56:40.508Z,73.72
2022-12-18T10:59:11.009Z,72.66
2022-12-18T11:01:47.144Z,72.33
2022-12-18T11:04:18.316Z,71.60
2022-12-18T11:07:05.500Z,71.21
2022-12-18T11:09:34.120Z,71.07
2022-12-18T11:12:03.598Z,70.95
2022-12-18T11:14:34.590Z,70.94
2022-12-18T11:19:55.499Z,70.65
2022-12-18T11:22:27.465Z,70.54
2022-12-18T11:27:56.332Z,69.32
2022-12-18T11:30:24.482Z,68.23
2022-12-18T11:32:56.625Z,67.69
2022-12-18T11:35:43.535Z,67.43
2022-12-18T11:38:29.361Z,67.50
2022-12-18T11:41:12.544Z,66.36
2022-12-18T11:43:49.516Z,64.91
2022-12-18T11:46:22.444Z,64.39
2022-12-18T11:48:59.425Z,63.09
2022-12-18T11:51:43.968Z,61.29
2022-12-18T11:54:17.226Z,60.44
2022-12-18T11:57:05.393Z,60.04
2022-12-18T11:59:49.020Z,58.42
2022-12-18T12:02:38.107Z,56.46
2022-12-18T12:05:41.710Z,54.73
2022-12-18T12:08:40.641Z,54.42
2022-12-18T12:11:18.745Z,53.16
2022-12-18T12:14:18.338Z,52.82
2022-12-18T12:16:59.646Z,52.65
2022-12-18T12:19:43.330Z,52.52
2022-12-18T12:22:46.970Z,51.72
2022-12-18T12:25:22.525Z,51.58
2022-12-18T12:28:18.741Z,52.44
2022-12-18T12:31:20.170Z,54.01
2022-12-18T12:33:55.920Z,54.60
2022-12-18T12:36:42.113Z,54.61
2022-12-18T12:39:13.680Z,55.20
2022-12-18T12:42:02.097Z,56.05
2022-12-18T12:44:34.665Z,56.79
2022-12-18T12:47:15.778Z,57.81
2022-12-18T12:49:48.394Z,58.63
2022-12-18T12:52:27.962Z,59.32
2022-12-18T12:54:55.724Z,60.06
2022-12-18T12:57:47.110Z,60.77
2022-12-18T13:00:20.099Z,61.47
2022-12-18T13:02:53.628Z,62.20
2022-12-18T13:05:34.719Z,63.12
2022-12-18T13:08:07.066Z,63.94
2022-12-18T13:10:36.829Z,64.64
2022-12-18T13:13:09.223Z,65.01
2022-12-18T13:16:08.375Z,65.62
2022-12-18T13:18:35.410Z,66.17
2022-12-18T13:21:03.758Z,66.47
2022-12-18T13:23:41.666Z,66.90
2022-12-18T13:26:11.855Z,67.06
2022-12-18T13:28:47.383Z,67.62
2022-12-18T13:31:42.105Z,68.03
2022-12-18T13:34:28.062Z,68.28
2022-12-18T13:36:57.450Z,68.45
2022-12-18T13:39:30.281Z,68.74
2022-12-18T13:42:07.040Z,68.91
2022-12-18T13:44:40.704Z,69.22
2022-12-18T13:47:34.322Z,69.62
2022-12-18T13:50:10.355Z,70.08
2022-12-18T13:52:40.228Z,70.69
2022-12-18T13:55:16.562Z,71.25
2022-12-18T13:57:43.040Z,71.74
2022-12-18T14:00:30.245Z,71.95
2022-12-18T14:02:59.113Z,72.46
2022-12-18T14:05:26.675Z,72.69
2022-12-18T14:07:55.116Z,73.02
2022-12-18T14:10:47.662Z,73.46
2022-12-18T14:13:11.695Z,73.53
2022-12-18T14:15:48.922Z,73.82
2022-12-18T14:18:29.378Z,74.18
2022-12-18T14:21:00.780Z,74.60
2022-12-18T14:23:30.901Z,75.14
2022-12-18T14:26:02.111Z,75.21
2022-12-18T14:28:31.755Z,75.59
2022-12-18T14:30:58.388Z,75.90
2022-12-18T14:33:27.357Z,75.87
2022-12-18T14:35:56.695Z,76.30
2022-12-18T14:38:28.104Z,76.37
2022-12-18T14:41:02.922Z,76.36
2022-12-18T14:43:35.591Z,76.66
2022-12-18T14:46:04.113Z,76.56
2022-12-18T14:48:38.702Z,76.89
2022-12-18T14:51:18.369Z,76.92
2022-12-18T14:54:10.749Z,77.14
2022-12-18T14:56:43.597Z,77.32
2022-12-18T14:59:23.767Z,77.65
2022-12-18T15:02:02.629Z,77.97
2022-12-18T15:04:35.572Z,78.12
2022-12-18T15:07:14.559Z,78.08
2022-12-18T15:09:43.217Z,78.42
2022-12-18T15:12:27.395Z,78.70
2022-12-18T15:14:53.790Z,78.82
2022-12-18T15:17:24.019Z,78.98
2022-12-18T15:19:59.820Z,79.08
2022-12-18T15:22:36.643Z,79.26
2022-12-18T15:25:22.700Z,79.27
2022-12-18T15:27:49.166Z,79.31
2022-12-18T15:30:15.676Z,79.43
2022-12-18T15:32:42.247Z,79.36
2022-12-18T15:35:11.944Z,79.51
2022-12-18T15:37:41.846Z,80.02
2022-12-18T15:40:13.846Z,80.18
2022-12-18T15:42:58.888Z,80.74
2022-12-18T15:45:25.402Z,80.75
2022-12-18T15:47:51.787Z,80.76
2022-12-18T15:50:18.236Z,81.07
2022-12-18T15:52:47.801Z,81.26
2022-12-18T15:55:35.831Z,81.41
2022-12-18T15:58:03.196Z,81.60
2022-12-18T16:00:29.844Z,81.82
2022-12-18T16:02:56.610Z,81.90
2022-12-18T16:05:24.384Z,82.04
2022-12-18T16:07:50.838Z,82.11
2022-12-18T16:10:18.180Z,81.96
2022-12-18T16:12:44.985Z,82.14
2022-12-18T16:15:18.448Z,82.47
2022-12-18T16:17:49.002Z,82.67
2022-12-18T16:20:21.578Z,82.77
2022-12-18T16:22:49.296Z,83.04
2022-12-18T16:25:25.548Z,82.99
2022-12-18T16:27:52.987Z,83.28
2022-12-18T16:30:23.355Z,83.30
2022-12-18T16:32:50.920Z,83.32
2022-12-18T16:35:17.797Z,83.30
2022-12-18T16:37:44.820Z,83.29
2022-12-18T16:40:14.151Z,83.19
2022-12-18T16:42:42.065Z,83.09
2022-12-18T16:45:18.721Z,83.13
2022-12-18T16:47:46.005Z,82.94
2022-12-18T16:50:13.007Z,82.73
2022-12-18T16:52:39.620Z,82.69
2022-12-18T16:55:06.353Z,82.50
2022-12-18T16:57:33.050Z,82.35
2022-12-18T17:00:04.689Z,82.24
2022-12-18T17:02:32.458Z,82.10
2022-12-18T17:04:59.427Z,82.01
2022-12-18T17:07:28.227Z,81.58
2022-12-18T17:09:54.873Z,81.39
2022-12-18T17:12:21.959Z,81.09
2022-12-18T17:14:48.638Z,81.01
2022-12-18T17:17:23.810Z,80.89
2022-12-18T17:19:51.783Z,80.55
2022-12-18T17:22:18.784Z,80.45
2022-12-18T17:24:46.703Z,80.37
2022-12-18T17:27:13.081Z,80.48
2022-12-18T17:29:45.325Z,80.50
2022-12-18T17:32:13.725Z,80.73
2022-12-18T17:34:40.675Z,80.72
2022-12-18T17:37:07.406Z,80.77
2022-12-18T17:39:33.968Z,81.15
2022-12-18T17:42:01.369Z,81.05
2022-12-18T17:44:27.948Z,81.20
2022-12-18T17:46:54.440Z,81.36
2022-12-18T17:49:21.551Z,81.09
2022-12-18T17:51:49.010Z,81.15
2022-12-18T17:54:15.446Z,80.99
2022-12-18T17:56:41.945Z,81.15
2022-12-18T17:59:08.447Z,80.96
2022-12-18T18:01:40.964Z,80.88
2022-12-18T18:24:53.085Z,79.37
2022-12-18T18:27:19.558Z,79.35
2022-12-18T18:29:46.154Z,79.21
2022-12-18T18:32:12.511Z,79.12
2022-12-18T18:34:38.924Z,79.10
2022-12-18T18:37:05.928Z,78.80
2022-12-18T18:39:32.669Z,78.75
2022-12-18T18:41:59.360Z,78.70
2022-12-18T18:44:26.445Z,78.51
2022-12-18T18:46:57.715Z,78.51
2022-12-18T18:49:27.417Z,78.61
2022-12-18T18:51:55.395Z,78.85
2022-12-18T18:54:22.082Z,79.12
2022-12-18T18:57:19.467Z,79.17
2022-12-18T18:59:35.772Z,79.28
2022-12-18T19:02:04.047Z,79.43
2022-12-18T19:04:32.733Z,79.40
2022-12-18T19:06:59.138Z,79.49
2022-12-18T19:09:25.978Z,79.54
2022-12-18T19:12:11.881Z,79.38
2022-12-18T19:14:38.309Z,79.42
2022-12-18T19:17:04.691Z,79.45
2022-12-18T19:19:32.320Z,79.06
2022-12-18T19:21:59.048Z,78.84
2022-12-18T19:24:25.451Z,78.61
2022-12-18T19:26:52.239Z,78.40
2022-12-18T19:29:20.621Z,78.16
2022-12-18T19:31:47.065Z,77.67
2022-12-18T19:34:13.566Z,76.99
2022-12-18T19:36:41.373Z,76.41
2022-12-18T19:39:17.880Z,75.98
2022-12-18T19:41:46.574Z,75.84
2022-12-18T19:44:15.773Z,75.71
2022-12-18T19:46:42.919Z,75.85
2022-12-18T19:49:10.763Z,75.74
2022-12-18T19:51:38.059Z,75.66
2022-12-18T19:54:04.862Z,75.67
2022-12-18T19:56:33.964Z,75.64
2022-12-18T19:59:01.360Z,75.81
2022-12-18T20:01:29.012Z,75.58
2022-12-18T20:03:56.821Z,75.30
2022-12-18T20:06:28.432Z,74.80
2022-12-18T20:09:00.677Z,74.57
2022-12-18T20:11:29.072Z,74.29
2022-12-18T20:13:55.807Z,73.88
2022-12-18T20:16:22.373Z,73.72
2022-12-18T20:18:49.374Z,73.31
2022-12-18T20:21:16.089Z,72.80
2022-12-18T20:23:43.301Z,72.89
2022-12-18T20:26:10.581Z,72.67
2022-12-18T20:28:37.104Z,72.02
2022-12-18T20:31:08.382Z,71.59
2022-12-18T20:33:37.301Z,71.07
2022-12-18T20:36:06.799Z,70.94
2022-12-18T20:38:35.276Z,70.79
2022-12-18T20:41:06.454Z,70.20
2022-12-18T20:43:32.878Z,69.88
2022-12-18T20:46:04.925Z,69.74
2022-12-18T20:48:32.666Z,69.86
2022-12-18T20:51:05.702Z,69.54
2022-12-18T20:53:33.656Z,69.16
2022-12-18T20:56:00.142Z,68.74
2022-12-18T20:58:26.544Z,67.84
2022-12-18T21:01:05.765Z,67.61
2022-12-18T21:03:32.405Z,67.37
2022-12-18T21:05:58.954Z,67.21
2022-12-18T21:08:25.415Z,67.32
2022-12-18T21:10:51.810Z,67.22
2022-12-18T21:13:20.729Z,67.19
2022-12-18T21:15:47.172Z,66.99
2022-12-18T21:18:13.821Z,66.89
2022-12-18T21:20:40.205Z,66.92
2022-12-18T21:23:15.928Z,66.86
2022-12-18T21:25:43.273Z,66.84
2022-12-18T21:28:09.669Z,66.98
2022-12-18T21:30:36.482Z,67.11
2022-12-18T21:33:03.115Z,66.92
2022-12-18T21:35:29.559Z,66.94
2022-12-18T21:37:58.736Z,67.25
2022-12-18T21:40:25.341Z,67.19
2022-12-18T21:43:10.463Z,67.50
2022-12-18T21:45:41.361Z,67.44
2022-12-18T21:48:07.839Z,67.53
2022-12-18T21:50:34.254Z,67.72
2022-12-18T21:53:00.662Z,67.77
2022-12-18T21:55:27.044Z,67.39
2022-12-18T21:57:54.636Z,67.53
2022-12-18T22:00:21.179Z,67.37
2022-12-18T22:02:52.485Z,67.18
2022-12-18T22:05:35.281Z,66.91
2022-12-18T22:08:01.790Z,66.93
2022-12-18T22:10:28.599Z,66.89
2022-12-18T22:12:55.237Z,67.20
2022-12-18T22:15:22.063Z,67.02
2022-12-18T22:17:52.710Z,66.85
2022-12-18T22:20:26.744Z,66.76
2022-12-18T22:22:53.376Z,66.74
2022-12-18T22:25:19.921Z,66.88
2022-12-18T22:28:06.324Z,66.89
2022-12-18T22:30:33.000Z,66.83
2022-12-18T22:32:59.692Z,66.57
2022-12-18T22:35:26.674Z,66.65
2022-12-18T22:37:53.099Z,66.56
2022-12-18T22:40:24.676Z,66.96
2022-12-18T22:42:53.033Z,66.67
2022-12-18T22:45:20.034Z,66.75
2022-12-18T22:47:46.461Z,66.75
2022-12-18T22:50:13.877Z,66.79
2022-12-18T22:52:40.802Z,66.77
2022-12-18T22:55:07.874Z,66.78
2022-12-18T22:57:34.472Z,66.96
2022-12-18T23:00:02.207Z,66.94
2022-12-18T23:02:28.833Z,66.95
2022-12-18T23:04:55.331Z,67.14
2022-12-18T23:07:21.736Z,67.00
2022-12-18T23:09:50.550Z,67.06
2022-12-18T23:12:20.228Z,67.01
2022-12-18T23:14:47.258Z,67.19
2022-12-18T23:17:13.923Z,67.45
2022-12-18T23:19:45.496Z,67.62
2022-12-18T23:22:15.190Z,67.90
2022-12-18T23:24:41.606Z,68.09
2022-12-18T23:27:11.539Z,68.34
2022-12-18T23:29:39.005Z,68.53
2022-12-18T23:32:05.461Z,68.37
2022-12-18T23:34:32.072Z,68.45
2022-12-18T23:36:58.564Z,68.34
2022-12-18T23:39:30.015Z,68.29
2022-12-18T23:41:57.974Z,68.22
2022-12-18T23:44:24.664Z,68.20
2022-12-18T23:46:51.168Z,68.18
2022-12-18T23:49:17.575Z,68.05
2022-12-18T23:51:44.084Z,68.00
2022-12-18T23:54:10.758Z,67.88
2022-12-18T23:56:37.659Z,67.90
2022-12-18T23:59:04.288Z,67.88
